Archival Weather

Los Angeles Intl

Los Angeles, California (KLAX)

Report from: Thursday, September 21, 2023 1:53 PM PDT
Current time: Saturday, March 2, 2024 1:59 AM PST

Current weather – Weather history – Daily summaries
Weather forecast

Temperature20.6°C (69.1°F)
Dew point15.6°C (60.1°F)
Winds 11 kts (5.7 m/s, 12.7 mph) West (260°)
Visibility10 mi. (16.1 km)
Clouds Few clouds 1,700 ft. (518 m)
Ceiling: Broken clouds 2,500 ft. (762 m)
Broken clouds 5,000 ft. (1,524 m)
Altimeter29.95 in.Hg (1014 mB)
Relative humidity73 %
Density altitude877 ft. (267 m)
Sea-level pressure101.4 kPa (1014 mB, 29.94 in.Hg)
Remarks Automated weather observing station with precipitation discriminator
Variable
Pressure falling more quickly
Flight conditions Marginal Visual Meteorological Conditions
Raw dataKLAX 212053Z 26011KT 10SM FEW017 BKN025 BKN050 21/16 A2995 RMK AO2 SLP139 BKN025 V SCT T02060156 58002
An error has occurred. This application may no longer respond until reloaded. Reload 🗙